sensor_id;sensor_type;location;lat;lon;timestamp;P1;durP1;ratioP1;P2;durP2;ratioP2
4450;SDS011;2238;50.180;9.230;2023-03-31T00:00:37;5.67;;;1.90;;
4450;SDS011;2238;50.180;9.230;2023-03-31T00:03:37;4.17;;;2.10;;
4450;SDS011;2238;50.180;9.230;2023-03-31T00:06:42;2.90;;;2.00;;
4450;SDS011;2238;50.180;9.230;2023-03-31T00:09:43;4.30;;;1.90;;
4450;SDS011;2238;50.180;9.230;2023-03-31T00:12:45;5.33;;;2.50;;
4450;SDS011;2238;50.180;9.230;2023-03-31T00:15:46;2.77;;;2.17;;
4450;SDS011;2238;50.180;9.230;2023-03-31T00:18:47;4.53;;;2.43;;
4450;SDS011;2238;50.180;9.230;2023-03-31T00:21:49;3.00;;;2.10;;
4450;SDS011;2238;50.180;9.230;2023-03-31T00:24:50;2.30;;;1.63;;
4450;SDS011;2238;50.180;9.230;2023-03-31T00:27:51;5.33;;;2.90;;
4450;SDS011;2238;50.180;9.230;2023-03-31T00:30:52;7.23;;;2.33;;
4450;SDS011;2238;50.180;9.230;2023-03-31T00:33:53;2.10;;;1.90;;
4450;SDS011;2238;50.180;9.230;2023-03-31T00:36:54;6.70;;;2.60;;
4450;SDS011;2238;50.180;9.230;2023-03-31T00:39:56;3.13;;;1.77;;
4450;SDS011;2238;50.180;9.230;2023-03-31T00:42:57;4.70;;;2.13;;
4450;SDS011;2238;50.180;9.230;2023-03-31T00:46:14;3.43;;;2.10;;
4450;SDS011;2238;50.180;9.230;2023-03-31T00:52:31;5.13;;;2.30;;
4450;SDS011;2238;50.180;9.230;2023-03-31T00:55:39;4.03;;;2.00;;
4450;SDS011;2238;50.180;9.230;2023-03-31T00:58:42;5.67;;;2.17;;
4450;SDS011;2238;50.180;9.230;2023-03-31T01:01:44;4.27;;;1.97;;
4450;SDS011;2238;50.180;9.230;2023-03-31T01:04:49;3.13;;;1.80;;
4450;SDS011;2238;50.180;9.230;2023-03-31T01:07:54;5.63;;;2.40;;
4450;SDS011;2238;50.180;9.230;2023-03-31T01:10:57;3.43;;;2.33;;
4450;SDS011;2238;50.180;9.230;2023-03-31T01:14:01;4.63;;;2.67;;
4450;SDS011;2238;50.180;9.230;2023-03-31T01:17:03;7.10;;;2.67;;
4450;SDS011;2238;50.180;9.230;2023-03-31T01:20:23;6.73;;;2.17;;
4450;SDS011;2238;50.180;9.230;2023-03-31T01:27:48;7.33;;;2.23;;
4450;SDS011;2238;50.180;9.230;2023-03-31T01:41:38;4.90;;;2.53;;
4450;SDS011;2238;50.180;9.230;2023-03-31T01:44:59;3.93;;;1.83;;
4450;SDS011;2238;50.180;9.230;2023-03-31T01:48:18;2.70;;;2.20;;
4450;SDS011;2238;50.180;9.230;2023-03-31T01:52:12;3.90;;;2.30;;
4450;SDS011;2238;50.180;9.230;2023-03-31T01:55:11;3.67;;;2.07;;
4450;SDS011;2238;50.180;9.230;2023-03-31T01:58:28;4.60;;;2.57;;
4450;SDS011;2238;50.180;9.230;2023-03-31T02:04:49;3.33;;;2.27;;
4450;SDS011;2238;50.180;9.230;2023-03-31T02:08:04;5.83;;;2.20;;
4450;SDS011;2238;50.180;9.230;2023-03-31T02:11:28;5.20;;;2.63;;
4450;SDS011;2238;50.180;9.230;2023-03-31T02:14:29;3.87;;;2.40;;
4450;SDS011;2238;50.180;9.230;2023-03-31T02:17:32;4.17;;;2.20;;
4450;SDS011;2238;50.180;9.230;2023-03-31T02:20:33;4.50;;;2.23;;
4450;SDS011;2238;50.180;9.230;2023-03-31T02:23:34;4.60;;;2.10;;
4450;SDS011;2238;50.180;9.230;2023-03-31T02:26:39;5.17;;;2.63;;
4450;SDS011;2238;50.180;9.230;2023-03-31T02:29:44;3.10;;;2.23;;
4450;SDS011;2238;50.180;9.230;2023-03-31T02:32:45;8.93;;;2.67;;
4450;SDS011;2238;50.180;9.230;2023-03-31T02:35:46;10.50;;;2.60;;
4450;SDS011;2238;50.180;9.230;2023-03-31T02:38:49;4.23;;;2.27;;
4450;SDS011;2238;50.180;9.230;2023-03-31T02:41:54;4.60;;;2.27;;
4450;SDS011;2238;50.180;9.230;2023-03-31T02:45:06;5.47;;;2.70;;
4450;SDS011;2238;50.180;9.230;2023-03-31T02:48:28;5.30;;;2.70;;
4450;SDS011;2238;50.180;9.230;2023-03-31T02:58:12;6.87;;;2.37;;
4450;SDS011;2238;50.180;9.230;2023-03-31T03:01:30;6.70;;;2.23;;
4450;SDS011;2238;50.180;9.230;2023-03-31T03:04:56;6.67;;;2.97;;
4450;SDS011;2238;50.180;9.230;2023-03-31T03:15:11;6.17;;;3.10;;
4450;SDS011;2238;50.180;9.230;2023-03-31T03:18:15;7.63;;;2.47;;
4450;SDS011;2238;50.180;9.230;2023-03-31T03:21:16;6.80;;;2.87;;
4450;SDS011;2238;50.180;9.230;2023-03-31T03:24:17;7.73;;;2.53;;
4450;SDS011;2238;50.180;9.230;2023-03-31T03:27:18;6.80;;;2.90;;
4450;SDS011;2238;50.180;9.230;2023-03-31T03:30:21;3.53;;;1.93;;
4450;SDS011;2238;50.180;9.230;2023-03-31T03:33:21;7.83;;;2.30;;
4450;SDS011;2238;50.180;9.230;2023-03-31T03:36:23;6.27;;;2.70;;
4450;SDS011;2238;50.180;9.230;2023-03-31T03:39:24;6.17;;;3.20;;
4450;SDS011;2238;50.180;9.230;2023-03-31T03:42:25;5.57;;;2.40;;
4450;SDS011;2238;50.180;9.230;2023-03-31T03:45:25;2.70;;;2.37;;
4450;SDS011;2238;50.180;9.230;2023-03-31T03:48:26;8.53;;;2.93;;
4450;SDS011;2238;50.180;9.230;2023-03-31T03:51:26;3.70;;;3.27;;
4450;SDS011;2238;50.180;9.230;2023-03-31T03:54:27;6.13;;;2.50;;
4450;SDS011;2238;50.180;9.230;2023-03-31T03:57:27;6.90;;;2.60;;
4450;SDS011;2238;50.180;9.230;2023-03-31T04:00:28;5.20;;;2.50;;
4450;SDS011;2238;50.180;9.230;2023-03-31T04:03:29;5.03;;;2.90;;
4450;SDS011;2238;50.180;9.230;2023-03-31T04:06:31;6.43;;;3.67;;
4450;SDS011;2238;50.180;9.230;2023-03-31T04:09:32;5.37;;;2.60;;
4450;SDS011;2238;50.180;9.230;2023-03-31T04:12:33;4.53;;;2.47;;
4450;SDS011;2238;50.180;9.230;2023-03-31T04:15:34;6.33;;;2.97;;
4450;SDS011;2238;50.180;9.230;2023-03-31T04:37:23;5.50;;;2.10;;
4450;SDS011;2238;50.180;9.230;2023-03-31T04:40:27;9.40;;;3.17;;
4450;SDS011;2238;50.180;9.230;2023-03-31T04:43:27;4.00;;;2.40;;
4450;SDS011;2238;50.180;9.230;2023-03-31T04:46:29;3.93;;;2.77;;
4450;SDS011;2238;50.180;9.230;2023-03-31T04:49:31;5.20;;;2.50;;
4450;SDS011;2238;50.180;9.230;2023-03-31T04:52:32;3.70;;;2.23;;
4450;SDS011;2238;50.180;9.230;2023-03-31T04:55:33;5.27;;;2.67;;
4450;SDS011;2238;50.180;9.230;2023-03-31T04:58:34;7.40;;;2.80;;
4450;SDS011;2238;50.180;9.230;2023-03-31T05:01:34;7.00;;;2.33;;
4450;SDS011;2238;50.180;9.230;2023-03-31T05:04:36;9.40;;;2.57;;
4450;SDS011;2238;50.180;9.230;2023-03-31T05:07:36;3.47;;;2.23;;
4450;SDS011;2238;50.180;9.230;2023-03-31T05:10:37;4.80;;;2.00;;
4450;SDS011;2238;50.180;9.230;2023-03-31T05:13:38;6.60;;;2.23;;
4450;SDS011;2238;50.180;9.230;2023-03-31T05:16:38;7.00;;;2.20;;
4450;SDS011;2238;50.180;9.230;2023-03-31T05:19:40;5.33;;;2.60;;
4450;SDS011;2238;50.180;9.230;2023-03-31T05:22:41;7.20;;;2.20;;
4450;SDS011;2238;50.180;9.230;2023-03-31T05:25:42;5.73;;;2.37;;
4450;SDS011;2238;50.180;9.230;2023-03-31T05:28:42;5.20;;;2.50;;
4450;SDS011;2238;50.180;9.230;2023-03-31T05:31:43;3.20;;;2.23;;
4450;SDS011;2238;50.180;9.230;2023-03-31T05:34:44;3.93;;;2.33;;
4450;SDS011;2238;50.180;9.230;2023-03-31T05:37:45;5.93;;;2.47;;
4450;SDS011;2238;50.180;9.230;2023-03-31T05:40:46;3.73;;;2.20;;
4450;SDS011;2238;50.180;9.230;2023-03-31T05:43:47;5.73;;;2.60;;
4450;SDS011;2238;50.180;9.230;2023-03-31T05:46:47;5.40;;;2.33;;
4450;SDS011;2238;50.180;9.230;2023-03-31T05:49:48;5.40;;;2.60;;
4450;SDS011;2238;50.180;9.230;2023-03-31T05:52:48;5.63;;;2.67;;
4450;SDS011;2238;50.180;9.230;2023-03-31T05:55:49;8.50;;;3.07;;
4450;SDS011;2238;50.180;9.230;2023-03-31T05:58:55;6.63;;;2.50;;
4450;SDS011;2238;50.180;9.230;2023-03-31T06:01:55;5.73;;;3.13;;
4450;SDS011;2238;50.180;9.230;2023-03-31T06:04:57;2.70;;;2.50;;
4450;SDS011;2238;50.180;9.230;2023-03-31T06:07:57;10.70;;;2.90;;
4450;SDS011;2238;50.180;9.230;2023-03-31T06:10:58;4.30;;;2.37;;
4450;SDS011;2238;50.180;9.230;2023-03-31T06:13:59;5.87;;;2.70;;
4450;SDS011;2238;50.180;9.230;2023-03-31T06:16:59;3.80;;;2.67;;
4450;SDS011;2238;50.180;9.230;2023-03-31T06:20:00;5.70;;;2.93;;
4450;SDS011;2238;50.180;9.230;2023-03-31T06:23:01;7.47;;;2.90;;
4450;SDS011;2238;50.180;9.230;2023-03-31T06:26:03;3.40;;;2.57;;
4450;SDS011;2238;50.180;9.230;2023-03-31T06:29:07;3.63;;;2.30;;
4450;SDS011;2238;50.180;9.230;2023-03-31T06:32:07;3.63;;;2.50;;
4450;SDS011;2238;50.180;9.230;2023-03-31T06:35:08;4.63;;;2.80;;
4450;SDS011;2238;50.180;9.230;2023-03-31T06:38:09;3.50;;;2.60;;
4450;SDS011;2238;50.180;9.230;2023-03-31T06:41:11;3.97;;;2.97;;
4450;SDS011;2238;50.180;9.230;2023-03-31T06:44:13;4.50;;;3.50;;
4450;SDS011;2238;50.180;9.230;2023-03-31T06:47:15;6.50;;;2.93;;
4450;SDS011;2238;50.180;9.230;2023-03-31T06:50:16;7.07;;;2.77;;
4450;SDS011;2238;50.180;9.230;2023-03-31T06:53:16;11.70;;;3.13;;
4450;SDS011;2238;50.180;9.230;2023-03-31T06:56:17;3.23;;;2.93;;
4450;SDS011;2238;50.180;9.230;2023-03-31T06:59:18;9.00;;;3.40;;
4450;SDS011;2238;50.180;9.230;2023-03-31T07:02:18;6.30;;;4.10;;
4450;SDS011;2238;50.180;9.230;2023-03-31T07:05:19;5.30;;;3.47;;
4450;SDS011;2238;50.180;9.230;2023-03-31T07:08:26;5.83;;;3.27;;
4450;SDS011;2238;50.180;9.230;2023-03-31T07:11:26;4.13;;;3.10;;
4450;SDS011;2238;50.180;9.230;2023-03-31T07:14:27;5.90;;;3.57;;
4450;SDS011;2238;50.180;9.230;2023-03-31T07:17:27;3.77;;;3.17;;
4450;SDS011;2238;50.180;9.230;2023-03-31T07:20:28;5.67;;;3.70;;
4450;SDS011;2238;50.180;9.230;2023-03-31T07:23:30;5.87;;;3.53;;
4450;SDS011;2238;50.180;9.230;2023-03-31T07:26:30;4.37;;;3.50;;
4450;SDS011;2238;50.180;9.230;2023-03-31T07:29:31;5.67;;;5.10;;
4450;SDS011;2238;50.180;9.230;2023-03-31T07:32:31;7.23;;;4.43;;
4450;SDS011;2238;50.180;9.230;2023-03-31T07:35:32;6.97;;;4.57;;
4450;SDS011;2238;50.180;9.230;2023-03-31T07:38:36;5.43;;;3.87;;
4450;SDS011;2238;50.180;9.230;2023-03-31T07:41:36;8.00;;;4.80;;
4450;SDS011;2238;50.180;9.230;2023-03-31T07:44:37;7.53;;;4.10;;
4450;SDS011;2238;50.180;9.230;2023-03-31T07:47:38;8.40;;;4.50;;
4450;SDS011;2238;50.180;9.230;2023-03-31T07:50:39;7.63;;;4.13;;
4450;SDS011;2238;50.180;9.230;2023-03-31T07:53:39;6.00;;;4.87;;
4450;SDS011;2238;50.180;9.230;2023-03-31T07:56:41;7.47;;;4.73;;
4450;SDS011;2238;50.180;9.230;2023-03-31T07:59:41;8.30;;;4.27;;
4450;SDS011;2238;50.180;9.230;2023-03-31T08:02:42;7.70;;;3.77;;
4450;SDS011;2238;50.180;9.230;2023-03-31T08:05:43;7.73;;;4.97;;
4450;SDS011;2238;50.180;9.230;2023-03-31T08:08:44;9.90;;;4.80;;
4450;SDS011;2238;50.180;9.230;2023-03-31T08:11:45;8.57;;;5.07;;
4450;SDS011;2238;50.180;9.230;2023-03-31T08:14:45;9.70;;;5.53;;
4450;SDS011;2238;50.180;9.230;2023-03-31T08:17:46;5.60;;;4.63;;
4450;SDS011;2238;50.180;9.230;2023-03-31T08:20:46;7.10;;;4.73;;
4450;SDS011;2238;50.180;9.230;2023-03-31T08:23:48;5.17;;;4.03;;
4450;SDS011;2238;50.180;9.230;2023-03-31T08:26:51;5.03;;;3.70;;
4450;SDS011;2238;50.180;9.230;2023-03-31T08:29:52;8.20;;;4.63;;
4450;SDS011;2238;50.180;9.230;2023-03-31T08:32:53;5.30;;;4.63;;
4450;SDS011;2238;50.180;9.230;2023-03-31T08:35:53;8.00;;;4.00;;
4450;SDS011;2238;50.180;9.230;2023-03-31T08:38:54;5.73;;;4.23;;
4450;SDS011;2238;50.180;9.230;2023-03-31T08:45:19;5.30;;;4.80;;
4450;SDS011;2238;50.180;9.230;2023-03-31T08:48:28;5.53;;;5.03;;
4450;SDS011;2238;50.180;9.230;2023-03-31T08:51:35;6.90;;;5.30;;
4450;SDS011;2238;50.180;9.230;2023-03-31T08:54:43;6.63;;;5.60;;
4450;SDS011;2238;50.180;9.230;2023-03-31T09:04:42;6.43;;;5.10;;
4450;SDS011;2238;50.180;9.230;2023-03-31T09:07:53;8.60;;;5.87;;
4450;SDS011;2238;50.180;9.230;2023-03-31T09:14:38;6.90;;;4.23;;
4450;SDS011;2238;50.180;9.230;2023-03-31T09:17:45;5.07;;;4.30;;
4450;SDS011;2238;50.180;9.230;2023-03-31T09:20:50;6.20;;;4.37;;
4450;SDS011;2238;50.180;9.230;2023-03-31T09:23:59;5.03;;;4.27;;
4450;SDS011;2238;50.180;9.230;2023-03-31T09:27:06;6.40;;;4.30;;
4450;SDS011;2238;50.180;9.230;2023-03-31T09:30:15;4.70;;;3.93;;
4450;SDS011;2238;50.180;9.230;2023-03-31T09:33:26;5.43;;;4.27;;
4450;SDS011;2238;50.180;9.230;2023-03-31T09:36:30;4.83;;;3.60;;
4450;SDS011;2238;50.180;9.230;2023-03-31T09:39:32;4.83;;;3.80;;
4450;SDS011;2238;50.180;9.230;2023-03-31T09:42:33;5.20;;;4.10;;
4450;SDS011;2238;50.180;9.230;2023-03-31T09:45:35;5.17;;;3.27;;
4450;SDS011;2238;50.180;9.230;2023-03-31T09:48:36;4.43;;;2.90;;
4450;SDS011;2238;50.180;9.230;2023-03-31T09:51:39;4.47;;;3.10;;
4450;SDS011;2238;50.180;9.230;2023-03-31T09:54:45;4.43;;;3.17;;
4450;SDS011;2238;50.180;9.230;2023-03-31T09:57:49;2.70;;;2.50;;
4450;SDS011;2238;50.180;9.230;2023-03-31T10:03:57;4.67;;;2.73;;
4450;SDS011;2238;50.180;9.230;2023-03-31T10:06:58;4.47;;;3.17;;
4450;SDS011;2238;50.180;9.230;2023-03-31T10:10:00;3.60;;;2.97;;
4450;SDS011;2238;50.180;9.230;2023-03-31T10:13:01;3.70;;;3.27;;
4450;SDS011;2238;50.180;9.230;2023-03-31T10:16:11;7.40;;;3.30;;
4450;SDS011;2238;50.180;9.230;2023-03-31T10:19:24;5.63;;;3.37;;
4450;SDS011;2238;50.180;9.230;2023-03-31T10:22:30;5.67;;;3.40;;
4450;SDS011;2238;50.180;9.230;2023-03-31T10:25:31;5.77;;;3.43;;
4450;SDS011;2238;50.180;9.230;2023-03-31T10:28:33;4.73;;;3.60;;
4450;SDS011;2238;50.180;9.230;2023-03-31T10:31:36;5.60;;;3.33;;
4450;SDS011;2238;50.180;9.230;2023-03-31T10:34:38;8.97;;;4.03;;
4450;SDS011;2238;50.180;9.230;2023-03-31T10:37:41;8.63;;;3.10;;
4450;SDS011;2238;50.180;9.230;2023-03-31T10:40:48;6.00;;;4.43;;
4450;SDS011;2238;50.180;9.230;2023-03-31T10:43:51;7.83;;;3.67;;
4450;SDS011;2238;50.180;9.230;2023-03-31T10:47:02;4.40;;;2.90;;
4450;SDS011;2238;50.180;9.230;2023-03-31T10:50:16;6.33;;;2.50;;
4450;SDS011;2238;50.180;9.230;2023-03-31T10:53:17;3.33;;;2.50;;
4450;SDS011;2238;50.180;9.230;2023-03-31T10:56:36;4.53;;;2.37;;
4450;SDS011;2238;50.180;9.230;2023-03-31T11:03:18;3.27;;;2.40;;
4450;SDS011;2238;50.180;9.230;2023-03-31T11:06:26;3.20;;;2.00;;
4450;SDS011;2238;50.180;9.230;2023-03-31T11:09:39;3.70;;;2.03;;
4450;SDS011;2238;50.180;9.230;2023-03-31T11:16:13;2.57;;;2.00;;
4450;SDS011;2238;50.180;9.230;2023-03-31T11:33:04;1.23;;;0.97;;
4450;SDS011;2238;50.180;9.230;2023-03-31T11:36:17;1.90;;;1.30;;
4450;SDS011;2238;50.180;9.230;2023-03-31T11:43:01;1.60;;;1.20;;
4450;SDS011;2238;50.180;9.230;2023-03-31T11:46:22;11.60;;;10.53;;
4450;SDS011;2238;50.180;9.230;2023-03-31T11:50:28;4.40;;;2.60;;
4450;SDS011;2238;50.180;9.230;2023-03-31T11:52:59;1.30;;;1.20;;
4450;SDS011;2238;50.180;9.230;2023-03-31T11:56:04;2.10;;;1.30;;
4450;SDS011;2238;50.180;9.230;2023-03-31T11:59:08;1.83;;;1.23;;
4450;SDS011;2238;50.180;9.230;2023-03-31T12:02:21;1.83;;;1.30;;
4450;SDS011;2238;50.180;9.230;2023-03-31T12:05:49;4.20;;;1.73;;
4450;SDS011;2238;50.180;9.230;2023-03-31T12:12:26;5.77;;;1.70;;
4450;SDS011;2238;50.180;9.230;2023-03-31T12:15:30;2.03;;;1.60;;
4450;SDS011;2238;50.180;9.230;2023-03-31T12:18:44;2.40;;;1.60;;
4450;SDS011;2238;50.180;9.230;2023-03-31T12:22:01;4.30;;;3.37;;
4450;SDS011;2238;50.180;9.230;2023-03-31T12:25:13;5.17;;;2.33;;
4450;SDS011;2238;50.180;9.230;2023-03-31T12:28:16;4.30;;;2.47;;
4450;SDS011;2238;50.180;9.230;2023-03-31T12:31:19;5.17;;;2.37;;
4450;SDS011;2238;50.180;9.230;2023-03-31T12:34:21;6.70;;;3.37;;
4450;SDS011;2238;50.180;9.230;2023-03-31T12:37:35;5.90;;;2.63;;
4450;SDS011;2238;50.180;9.230;2023-03-31T12:47:32;5.70;;;2.83;;
4450;SDS011;2238;50.180;9.230;2023-03-31T12:57:02;9.23;;;3.33;;
4450;SDS011;2238;50.180;9.230;2023-03-31T13:00:25;7.90;;;3.27;;
4450;SDS011;2238;50.180;9.230;2023-03-31T13:12:38;7.80;;;2.23;;
4450;SDS011;2238;50.180;9.230;2023-03-31T13:15:39;1.80;;;1.33;;
4450;SDS011;2238;50.180;9.230;2023-03-31T13:18:51;1.33;;;1.10;;
4450;SDS011;2238;50.180;9.230;2023-03-31T13:21:54;5.73;;;1.57;;
4450;SDS011;2238;50.180;9.230;2023-03-31T13:28:34;6.00;;;2.77;;
4450;SDS011;2238;50.180;9.230;2023-03-31T13:35:34;7.43;;;1.47;;
4450;SDS011;2238;50.180;9.230;2023-03-31T13:38:34;4.20;;;1.50;;
4450;SDS011;2238;50.180;9.230;2023-03-31T13:41:59;3.73;;;2.10;;
4450;SDS011;2238;50.180;9.230;2023-03-31T14:07:46;4.93;;;2.20;;
4450;SDS011;2238;50.180;9.230;2023-03-31T14:10:52;4.83;;;3.10;;
4450;SDS011;2238;50.180;9.230;2023-03-31T14:17:30;3.33;;;2.40;;
4450;SDS011;2238;50.180;9.230;2023-03-31T14:31:06;4.00;;;2.10;;
4450;SDS011;2238;50.180;9.230;2023-03-31T14:34:37;2.30;;;1.50;;
4450;SDS011;2238;50.180;9.230;2023-03-31T14:37:44;3.50;;;1.63;;
4450;SDS011;2238;50.180;9.230;2023-03-31T14:40:51;1.40;;;1.30;;
4450;SDS011;2238;50.180;9.230;2023-03-31T14:43:56;5.10;;;1.70;;
4450;SDS011;2238;50.180;9.230;2023-03-31T14:47:00;1.47;;;1.00;;
4450;SDS011;2238;50.180;9.230;2023-03-31T14:50:02;2.73;;;0.90;;
4450;SDS011;2238;50.180;9.230;2023-03-31T14:53:15;1.33;;;0.90;;
4450;SDS011;2238;50.180;9.230;2023-03-31T14:56:20;2.67;;;1.17;;
4450;SDS011;2238;50.180;9.230;2023-03-31T14:59:35;3.10;;;2.20;;
4450;SDS011;2238;50.180;9.230;2023-03-31T15:02:37;2.73;;;1.60;;
4450;SDS011;2238;50.180;9.230;2023-03-31T15:05:41;3.00;;;1.40;;
4450;SDS011;2238;50.180;9.230;2023-03-31T15:08:43;1.80;;;1.67;;
4450;SDS011;2238;50.180;9.230;2023-03-31T15:11:45;2.43;;;2.10;;
4450;SDS011;2238;50.180;9.230;2023-03-31T15:14:48;2.40;;;1.43;;
4450;SDS011;2238;50.180;9.230;2023-03-31T15:17:55;4.47;;;1.60;;
4450;SDS011;2238;50.180;9.230;2023-03-31T15:20:56;5.80;;;2.00;;
4450;SDS011;2238;50.180;9.230;2023-03-31T15:23:56;3.97;;;1.93;;
4450;SDS011;2238;50.180;9.230;2023-03-31T15:27:05;2.43;;;1.60;;
4450;SDS011;2238;50.180;9.230;2023-03-31T15:30:08;2.80;;;1.60;;
4450;SDS011;2238;50.180;9.230;2023-03-31T15:33:17;1.53;;;1.30;;
4450;SDS011;2238;50.180;9.230;2023-03-31T15:36:24;3.70;;;1.93;;
4450;SDS011;2238;50.180;9.230;2023-03-31T15:39:28;4.43;;;1.33;;
4450;SDS011;2238;50.180;9.230;2023-03-31T15:42:31;2.90;;;1.23;;
4450;SDS011;2238;50.180;9.230;2023-03-31T15:45:46;7.63;;;1.37;;
4450;SDS011;2238;50.180;9.230;2023-03-31T15:48:54;3.80;;;1.80;;
4450;SDS011;2238;50.180;9.230;2023-03-31T15:51:55;2.50;;;1.70;;
4450;SDS011;2238;50.180;9.230;2023-03-31T15:54:56;6.07;;;1.73;;
4450;SDS011;2238;50.180;9.230;2023-03-31T15:57:58;1.60;;;1.50;;
4450;SDS011;2238;50.180;9.230;2023-03-31T16:01:01;3.23;;;1.80;;
4450;SDS011;2238;50.180;9.230;2023-03-31T16:04:07;2.87;;;1.00;;
4450;SDS011;2238;50.180;9.230;2023-03-31T16:07:29;4.00;;;1.70;;
4450;SDS011;2238;50.180;9.230;2023-03-31T16:10:32;4.20;;;2.37;;
4450;SDS011;2238;50.180;9.230;2023-03-31T16:13:34;4.20;;;1.63;;
4450;SDS011;2238;50.180;9.230;2023-03-31T16:16:39;2.20;;;2.00;;
4450;SDS011;2238;50.180;9.230;2023-03-31T16:19:47;3.13;;;1.60;;
4450;SDS011;2238;50.180;9.230;2023-03-31T16:22:52;4.10;;;1.90;;
4450;SDS011;2238;50.180;9.230;2023-03-31T16:25:55;6.80;;;1.80;;
4450;SDS011;2238;50.180;9.230;2023-03-31T16:28:57;3.63;;;2.00;;
4450;SDS011;2238;50.180;9.230;2023-03-31T16:32:08;3.47;;;2.80;;
4450;SDS011;2238;50.180;9.230;2023-03-31T16:35:11;4.10;;;1.63;;
4450;SDS011;2238;50.180;9.230;2023-03-31T16:38:12;1.80;;;1.40;;
4450;SDS011;2238;50.180;9.230;2023-03-31T16:41:15;2.67;;;2.40;;
4450;SDS011;2238;50.180;9.230;2023-03-31T16:44:16;6.90;;;3.33;;
4450;SDS011;2238;50.180;9.230;2023-03-31T16:47:16;2.80;;;2.00;;
4450;SDS011;2238;50.180;9.230;2023-03-31T16:50:17;4.90;;;2.40;;
4450;SDS011;2238;50.180;9.230;2023-03-31T16:53:18;4.70;;;2.40;;
4450;SDS011;2238;50.180;9.230;2023-03-31T16:56:21;9.60;;;5.67;;
4450;SDS011;2238;50.180;9.230;2023-03-31T16:59:22;2.13;;;1.80;;
4450;SDS011;2238;50.180;9.230;2023-03-31T17:02:23;1.70;;;1.47;;
4450;SDS011;2238;50.180;9.230;2023-03-31T17:05:24;7.13;;;2.10;;
4450;SDS011;2238;50.180;9.230;2023-03-31T17:08:25;7.07;;;2.90;;
4450;SDS011;2238;50.180;9.230;2023-03-31T17:11:26;5.60;;;2.17;;
4450;SDS011;2238;50.180;9.230;2023-03-31T17:14:29;3.53;;;2.13;;
4450;SDS011;2238;50.180;9.230;2023-03-31T17:17:29;2.07;;;1.50;;
4450;SDS011;2238;50.180;9.230;2023-03-31T17:20:30;6.50;;;3.50;;
4450;SDS011;2238;50.180;9.230;2023-03-31T17:23:31;3.50;;;2.00;;
4450;SDS011;2238;50.180;9.230;2023-03-31T17:26:32;10.23;;;6.67;;
4450;SDS011;2238;50.180;9.230;2023-03-31T17:29:35;3.23;;;2.30;;
4450;SDS011;2238;50.180;9.230;2023-03-31T17:32:35;5.33;;;3.33;;
4450;SDS011;2238;50.180;9.230;2023-03-31T17:35:36;1.70;;;1.53;;
4450;SDS011;2238;50.180;9.230;2023-03-31T17:38:37;4.50;;;1.53;;
4450;SDS011;2238;50.180;9.230;2023-03-31T17:41:38;2.53;;;1.73;;
4450;SDS011;2238;50.180;9.230;2023-03-31T17:44:39;4.60;;;1.90;;
4450;SDS011;2238;50.180;9.230;2023-03-31T17:47:40;3.13;;;1.80;;
4450;SDS011;2238;50.180;9.230;2023-03-31T17:50:42;2.77;;;2.40;;
4450;SDS011;2238;50.180;9.230;2023-03-31T17:53:43;2.73;;;1.73;;
4450;SDS011;2238;50.180;9.230;2023-03-31T17:56:46;3.37;;;2.23;;
4450;SDS011;2238;50.180;9.230;2023-03-31T17:59:49;4.87;;;2.40;;
4450;SDS011;2238;50.180;9.230;2023-03-31T18:02:50;8.00;;;2.20;;
4450;SDS011;2238;50.180;9.230;2023-03-31T18:05:51;5.47;;;3.53;;
4450;SDS011;2238;50.180;9.230;2023-03-31T18:08:51;5.17;;;2.37;;
4450;SDS011;2238;50.180;9.230;2023-03-31T18:11:52;3.50;;;1.77;;
4450;SDS011;2238;50.180;9.230;2023-03-31T18:14:53;4.40;;;1.73;;
4450;SDS011;2238;50.180;9.230;2023-03-31T18:17:54;5.60;;;2.13;;
4450;SDS011;2238;50.180;9.230;2023-03-31T18:20:55;6.87;;;2.13;;
4450;SDS011;2238;50.180;9.230;2023-03-31T18:23:56;8.17;;;2.90;;
4450;SDS011;2238;50.180;9.230;2023-03-31T18:26:56;3.37;;;1.83;;
4450;SDS011;2238;50.180;9.230;2023-03-31T18:29:57;4.43;;;1.80;;
4450;SDS011;2238;50.180;9.230;2023-03-31T18:32:57;5.27;;;2.10;;
4450;SDS011;2238;50.180;9.230;2023-03-31T18:35:58;4.90;;;1.97;;
4450;SDS011;2238;50.180;9.230;2023-03-31T18:38:59;3.77;;;2.50;;
4450;SDS011;2238;50.180;9.230;2023-03-31T18:42:00;3.90;;;2.07;;
4450;SDS011;2238;50.180;9.230;2023-03-31T18:45:02;4.27;;;2.23;;
4450;SDS011;2238;50.180;9.230;2023-03-31T18:48:03;5.57;;;2.67;;
4450;SDS011;2238;50.180;9.230;2023-03-31T18:51:03;3.40;;;1.90;;
4450;SDS011;2238;50.180;9.230;2023-03-31T18:54:04;5.90;;;2.30;;
4450;SDS011;2238;50.180;9.230;2023-03-31T18:57:08;3.70;;;2.03;;
4450;SDS011;2238;50.180;9.230;2023-03-31T19:00:09;4.20;;;1.90;;
4450;SDS011;2238;50.180;9.230;2023-03-31T19:03:10;3.50;;;1.50;;
4450;SDS011;2238;50.180;9.230;2023-03-31T19:06:13;5.30;;;1.80;;
4450;SDS011;2238;50.180;9.230;2023-03-31T19:09:15;5.07;;;1.90;;
4450;SDS011;2238;50.180;9.230;2023-03-31T19:12:18;3.80;;;1.93;;
4450;SDS011;2238;50.180;9.230;2023-03-31T19:15:19;8.10;;;2.97;;
4450;SDS011;2238;50.180;9.230;2023-03-31T19:18:21;7.63;;;1.77;;
4450;SDS011;2238;50.180;9.230;2023-03-31T19:21:22;5.07;;;1.53;;
4450;SDS011;2238;50.180;9.230;2023-03-31T19:24:23;2.20;;;1.17;;
4450;SDS011;2238;50.180;9.230;2023-03-31T19:27:24;2.47;;;1.47;;
4450;SDS011;2238;50.180;9.230;2023-03-31T19:30:24;1.67;;;1.27;;
4450;SDS011;2238;50.180;9.230;2023-03-31T19:33:25;3.07;;;1.63;;
4450;SDS011;2238;50.180;9.230;2023-03-31T19:36:26;4.87;;;1.93;;
4450;SDS011;2238;50.180;9.230;2023-03-31T19:39:27;4.07;;;2.60;;
4450;SDS011;2238;50.180;9.230;2023-03-31T19:42:28;2.60;;;1.63;;
4450;SDS011;2238;50.180;9.230;2023-03-31T19:45:29;3.17;;;1.80;;
4450;SDS011;2238;50.180;9.230;2023-03-31T19:48:30;2.60;;;1.60;;
4450;SDS011;2238;50.180;9.230;2023-03-31T19:51:32;6.27;;;2.27;;
4450;SDS011;2238;50.180;9.230;2023-03-31T19:54:33;4.63;;;1.83;;
4450;SDS011;2238;50.180;9.230;2023-03-31T19:57:33;2.87;;;1.90;;
4450;SDS011;2238;50.180;9.230;2023-03-31T20:00:34;2.03;;;1.60;;
4450;SDS011;2238;50.180;9.230;2023-03-31T20:03:34;3.73;;;1.20;;
4450;SDS011;2238;50.180;9.230;2023-03-31T20:06:35;6.00;;;1.80;;
4450;SDS011;2238;50.180;9.230;2023-03-31T20:09:36;6.40;;;1.73;;
4450;SDS011;2238;50.180;9.230;2023-03-31T20:12:36;2.37;;;1.30;;
4450;SDS011;2238;50.180;9.230;2023-03-31T20:15:37;2.53;;;1.93;;
4450;SDS011;2238;50.180;9.230;2023-03-31T20:18:40;5.60;;;2.07;;
4450;SDS011;2238;50.180;9.230;2023-03-31T20:21:43;2.00;;;1.60;;
4450;SDS011;2238;50.180;9.230;2023-03-31T20:24:44;3.97;;;1.60;;
4450;SDS011;2238;50.180;9.230;2023-03-31T20:27:46;1.40;;;1.30;;
4450;SDS011;2238;50.180;9.230;2023-03-31T20:30:47;4.33;;;1.30;;
4450;SDS011;2238;50.180;9.230;2023-03-31T20:33:48;3.23;;;1.90;;
4450;SDS011;2238;50.180;9.230;2023-03-31T20:36:50;7.73;;;2.00;;
4450;SDS011;2238;50.180;9.230;2023-03-31T20:39:51;3.93;;;1.60;;
4450;SDS011;2238;50.180;9.230;2023-03-31T20:42:53;1.97;;;1.73;;
4450;SDS011;2238;50.180;9.230;2023-03-31T20:45:54;3.33;;;1.40;;
4450;SDS011;2238;50.180;9.230;2023-03-31T20:49:03;4.33;;;1.70;;
4450;SDS011;2238;50.180;9.230;2023-03-31T20:52:05;4.07;;;2.20;;
4450;SDS011;2238;50.180;9.230;2023-03-31T20:55:06;1.57;;;1.10;;
4450;SDS011;2238;50.180;9.230;2023-03-31T20:58:07;1.50;;;1.20;;
4450;SDS011;2238;50.180;9.230;2023-03-31T21:01:08;2.50;;;1.40;;
4450;SDS011;2238;50.180;9.230;2023-03-31T21:04:10;5.30;;;1.50;;
4450;SDS011;2238;50.180;9.230;2023-03-31T21:07:11;3.33;;;1.27;;
4450;SDS011;2238;50.180;9.230;2023-03-31T21:10:11;2.93;;;1.33;;
4450;SDS011;2238;50.180;9.230;2023-03-31T21:13:13;2.93;;;1.37;;
4450;SDS011;2238;50.180;9.230;2023-03-31T21:16:15;3.00;;;1.40;;
4450;SDS011;2238;50.180;9.230;2023-03-31T21:19:16;5.43;;;1.50;;
4450;SDS011;2238;50.180;9.230;2023-03-31T21:22:17;5.07;;;1.20;;
4450;SDS011;2238;50.180;9.230;2023-03-31T21:25:17;7.70;;;1.47;;
4450;SDS011;2238;50.180;9.230;2023-03-31T21:28:19;3.27;;;1.10;;
4450;SDS011;2238;50.180;9.230;2023-03-31T21:31:22;3.50;;;1.40;;
4450;SDS011;2238;50.180;9.230;2023-03-31T21:34:23;4.87;;;1.67;;
4450;SDS011;2238;50.180;9.230;2023-03-31T21:37:24;4.73;;;1.70;;
4450;SDS011;2238;50.180;9.230;2023-03-31T21:40:26;3.10;;;1.70;;
4450;SDS011;2238;50.180;9.230;2023-03-31T21:43:27;2.90;;;1.13;;
4450;SDS011;2238;50.180;9.230;2023-03-31T21:46:28;3.73;;;1.30;;